sensor_id;sensor_type;location;lat;lon;timestamp;temperature;humidity
23671;DHT22;12012;51.998;7.614;2023-08-08T00:02:13;13.50;1.00
23671;DHT22;12012;51.998;7.614;2023-08-08T00:04:38;13.50;1.00
23671;DHT22;12012;51.998;7.614;2023-08-08T00:07:04;13.50;7.20
23671;DHT22;12012;51.998;7.614;2023-08-08T00:09:29;13.60;1.00
23671;DHT22;12012;51.998;7.614;2023-08-08T00:11:55;13.60;1.00
23671;DHT22;12012;51.998;7.614;2023-08-08T00:14:23;13.60;3.00
23671;DHT22;12012;51.998;7.614;2023-08-08T00:16:49;13.60;56.50
23671;DHT22;12012;51.998;7.614;2023-08-08T00:19:15;13.70;1.00
23671;DHT22;12012;51.998;7.614;2023-08-08T00:21:40;13.70;1.00
23671;DHT22;12012;51.998;7.614;2023-08-08T00:24:06;13.70;1.00
23671;DHT22;12012;51.998;7.614;2023-08-08T00:26:31;13.70;1.00
23671;DHT22;12012;51.998;7.614;2023-08-08T00:28:57;13.80;1.00
23671;DHT22;12012;51.998;7.614;2023-08-08T00:31:23;13.80;5.60
23671;DHT22;12012;51.998;7.614;2023-08-08T00:33:48;13.80;1.00
23671;DHT22;12012;51.998;7.614;2023-08-08T00:36:14;13.80;1.00
23671;DHT22;12012;51.998;7.614;2023-08-08T00:38:39;13.90;1.00
23671;DHT22;12012;51.998;7.614;2023-08-08T00:41:05;13.90;1.00
23671;DHT22;12012;51.998;7.614;2023-08-08T00:43:31;13.90;1.00
23671;DHT22;12012;51.998;7.614;2023-08-08T00:45:57;13.90;49.50
23671;DHT22;12012;51.998;7.614;2023-08-08T00:48:23;13.90;1.00
23671;DHT22;12012;51.998;7.614;2023-08-08T00:50:50;14.00;86.20
23671;DHT22;12012;51.998;7.614;2023-08-08T00:53:17;14.00;99.90
23671;DHT22;12012;51.998;7.614;2023-08-08T00:55:43;13.90;99.90
23671;DHT22;12012;51.998;7.614;2023-08-08T00:58:09;14.00;99.90
23671;DHT22;12012;51.998;7.614;2023-08-08T01:00:35;14.00;99.90
23671;DHT22;12012;51.998;7.614;2023-08-08T01:03:01;14.00;99.90
23671;DHT22;12012;51.998;7.614;2023-08-08T01:05:33;13.90;99.90
23671;DHT22;12012;51.998;7.614;2023-08-08T01:08:04;13.90;99.90
23671;DHT22;12012;51.998;7.614;2023-08-08T01:10:37;13.90;99.90
23671;DHT22;12012;51.998;7.614;2023-08-08T01:13:14;13.80;99.90
23671;DHT22;12012;51.998;7.614;2023-08-08T01:15:42;13.80;99.90
23671;DHT22;12012;51.998;7.614;2023-08-08T01:18:09;13.70;1.00
23671;DHT22;12012;51.998;7.614;2023-08-08T01:20:36;13.70;1.00
23671;DHT22;12012;51.998;7.614;2023-08-08T01:23:19;13.60;1.00
23671;DHT22;12012;51.998;7.614;2023-08-08T01:25:49;13.60;1.00
23671;DHT22;12012;51.998;7.614;2023-08-08T01:28:15;13.50;1.00
23671;DHT22;12012;51.998;7.614;2023-08-08T01:30:40;13.50;1.00
23671;DHT22;12012;51.998;7.614;2023-08-08T01:33:08;13.50;1.00
23671;DHT22;12012;51.998;7.614;2023-08-08T01:35:40;13.40;1.00
23671;DHT22;12012;51.998;7.614;2023-08-08T01:38:31;13.40;1.00
23671;DHT22;12012;51.998;7.614;2023-08-08T01:40:57;13.40;1.00
23671;DHT22;12012;51.998;7.614;2023-08-08T01:43:24;13.30;1.00
23671;DHT22;12012;51.998;7.614;2023-08-08T01:45:51;13.30;1.00
23671;DHT22;12012;51.998;7.614;2023-08-08T01:48:17;13.30;1.00
23671;DHT22;12012;51.998;7.614;2023-08-08T01:50:43;13.20;1.00
23671;DHT22;12012;51.998;7.614;2023-08-08T01:53:08;13.30;1.00
23671;DHT22;12012;51.998;7.614;2023-08-08T01:55:34;13.20;1.00
23671;DHT22;12012;51.998;7.614;2023-08-08T01:58:00;13.20;1.00
23671;DHT22;12012;51.998;7.614;2023-08-08T02:00:25;13.20;1.00
23671;DHT22;12012;51.998;7.614;2023-08-08T02:02:51;13.20;1.00
23671;DHT22;12012;51.998;7.614;2023-08-08T02:05:16;13.10;1.00
23671;DHT22;12012;51.998;7.614;2023-08-08T02:07:42;13.10;1.00
23671;DHT22;12012;51.998;7.614;2023-08-08T02:10:08;13.10;1.00
23671;DHT22;12012;51.998;7.614;2023-08-08T02:12:33;13.10;1.00
23671;DHT22;12012;51.998;7.614;2023-08-08T02:14:59;13.00;1.00
23671;DHT22;12012;51.998;7.614;2023-08-08T02:17:25;13.00;1.00
23671;DHT22;12012;51.998;7.614;2023-08-08T02:19:51;13.10;1.00
23671;DHT22;12012;51.998;7.614;2023-08-08T02:22:17;13.10;1.00
23671;DHT22;12012;51.998;7.614;2023-08-08T02:24:43;13.10;1.00
23671;DHT22;12012;51.998;7.614;2023-08-08T02:27:09;13.10;1.00
23671;DHT22;12012;51.998;7.614;2023-08-08T02:29:34;13.10;1.00
23671;DHT22;12012;51.998;7.614;2023-08-08T02:32:00;13.10;1.00
23671;DHT22;12012;51.998;7.614;2023-08-08T02:34:25;13.10;1.00
23671;DHT22;12012;51.998;7.614;2023-08-08T02:36:51;13.10;1.00
23671;DHT22;12012;51.998;7.614;2023-08-08T02:39:17;13.20;1.00
23671;DHT22;12012;51.998;7.614;2023-08-08T02:41:42;13.20;1.00
23671;DHT22;12012;51.998;7.614;2023-08-08T02:44:08;13.20;1.00
23671;DHT22;12012;51.998;7.614;2023-08-08T02:46:33;13.20;1.00
23671;DHT22;12012;51.998;7.614;2023-08-08T02:48:59;13.30;1.00
23671;DHT22;12012;51.998;7.614;2023-08-08T02:51:25;13.30;3.60
23671;DHT22;12012;51.998;7.614;2023-08-08T02:53:50;13.30;1.00
23671;DHT22;12012;51.998;7.614;2023-08-08T02:56:16;13.30;1.00
23671;DHT22;12012;51.998;7.614;2023-08-08T02:58:41;13.40;1.00
23671;DHT22;12012;51.998;7.614;2023-08-08T03:01:07;13.40;1.00
23671;DHT22;12012;51.998;7.614;2023-08-08T03:03:33;13.40;1.00
23671;DHT22;12012;51.998;7.614;2023-08-08T03:06:00;13.40;1.00
23671;DHT22;12012;51.998;7.614;2023-08-08T03:08:25;13.40;1.00
23671;DHT22;12012;51.998;7.614;2023-08-08T03:10:53;13.50;1.00
23671;DHT22;12012;51.998;7.614;2023-08-08T03:13:18;13.50;1.00
23671;DHT22;12012;51.998;7.614;2023-08-08T03:15:45;13.40;1.00
23671;DHT22;12012;51.998;7.614;2023-08-08T03:18:10;13.40;1.00
23671;DHT22;12012;51.998;7.614;2023-08-08T03:20:36;13.50;1.00
23671;DHT22;12012;51.998;7.614;2023-08-08T03:23:01;13.50;1.00
23671;DHT22;12012;51.998;7.614;2023-08-08T03:25:27;13.50;1.00
23671;DHT22;12012;51.998;7.614;2023-08-08T03:27:52;13.50;1.00
23671;DHT22;12012;51.998;7.614;2023-08-08T03:30:18;13.40;1.00
23671;DHT22;12012;51.998;7.614;2023-08-08T03:32:44;13.40;5.00
23671;DHT22;12012;51.998;7.614;2023-08-08T03:35:09;13.40;9.70
23671;DHT22;12012;51.998;7.614;2023-08-08T03:37:35;13.40;8.20
23671;DHT22;12012;51.998;7.614;2023-08-08T03:40:00;13.40;15.60
23671;DHT22;12012;51.998;7.614;2023-08-08T03:42:26;13.30;16.80
23671;DHT22;12012;51.998;7.614;2023-08-08T03:44:51;13.30;25.30
23671;DHT22;12012;51.998;7.614;2023-08-08T03:47:17;13.30;24.10
23671;DHT22;12012;51.998;7.614;2023-08-08T03:49:42;13.30;27.10
23671;DHT22;12012;51.998;7.614;2023-08-08T03:52:08;13.30;35.40
23671;DHT22;12012;51.998;7.614;2023-08-08T03:54:34;13.30;37.80
23671;DHT22;12012;51.998;7.614;2023-08-08T03:56:59;13.30;32.10
23671;DHT22;12012;51.998;7.614;2023-08-08T03:59:26;13.30;42.60
23671;DHT22;12012;51.998;7.614;2023-08-08T04:01:52;13.20;37.60
23671;DHT22;12012;51.998;7.614;2023-08-08T04:04:17;13.20;44.20
23671;DHT22;12012;51.998;7.614;2023-08-08T04:06:43;13.20;48.30
23671;DHT22;12012;51.998;7.614;2023-08-08T04:09:08;13.20;49.70
23671;DHT22;12012;51.998;7.614;2023-08-08T04:11:34;13.20;49.20
23671;DHT22;12012;51.998;7.614;2023-08-08T04:14:01;13.20;53.70
23671;DHT22;12012;51.998;7.614;2023-08-08T04:16:28;13.20;57.20
23671;DHT22;12012;51.998;7.614;2023-08-08T04:18:53;13.20;52.40
23671;DHT22;12012;51.998;7.614;2023-08-08T04:21:19;13.20;64.50
23671;DHT22;12012;51.998;7.614;2023-08-08T04:23:44;13.30;58.40
23671;DHT22;12012;51.998;7.614;2023-08-08T04:26:10;13.30;54.70
23671;DHT22;12012;51.998;7.614;2023-08-08T04:28:35;13.30;62.80
23671;DHT22;12012;51.998;7.614;2023-08-08T04:31:01;13.30;63.00
23671;DHT22;12012;51.998;7.614;2023-08-08T04:33:27;13.30;58.70
23671;DHT22;12012;51.998;7.614;2023-08-08T04:35:52;13.30;58.90
23671;DHT22;12012;51.998;7.614;2023-08-08T04:38:18;13.30;58.90
23671;DHT22;12012;51.998;7.614;2023-08-08T04:40:43;13.30;58.10
23671;DHT22;12012;51.998;7.614;2023-08-08T04:43:09;13.30;65.60
23671;DHT22;12012;51.998;7.614;2023-08-08T04:45:34;13.40;55.00
23671;DHT22;12012;51.998;7.614;2023-08-08T04:48:00;13.40;51.20
23671;DHT22;12012;51.998;7.614;2023-08-08T04:50:26;13.40;47.20
23671;DHT22;12012;51.998;7.614;2023-08-08T04:52:51;13.40;45.90
23671;DHT22;12012;51.998;7.614;2023-08-08T04:55:17;13.40;52.00
23671;DHT22;12012;51.998;7.614;2023-08-08T04:57:42;13.40;48.30
23671;DHT22;12012;51.998;7.614;2023-08-08T05:00:08;13.50;42.80
23671;DHT22;12012;51.998;7.614;2023-08-08T05:02:35;13.50;39.80
23671;DHT22;12012;51.998;7.614;2023-08-08T05:05:01;13.50;39.80
23671;DHT22;12012;51.998;7.614;2023-08-08T05:07:27;13.50;33.80
23671;DHT22;12012;51.998;7.614;2023-08-08T05:09:53;13.50;28.80
23671;DHT22;12012;51.998;7.614;2023-08-08T05:12:18;13.50;23.00
23671;DHT22;12012;51.998;7.614;2023-08-08T05:14:44;13.50;25.20
23671;DHT22;12012;51.998;7.614;2023-08-08T05:17:09;13.50;25.40
23671;DHT22;12012;51.998;7.614;2023-08-08T05:19:35;13.60;24.90
23671;DHT22;12012;51.998;7.614;2023-08-08T05:22:00;13.60;30.10
23671;DHT22;12012;51.998;7.614;2023-08-08T05:24:26;13.70;19.00
23671;DHT22;12012;51.998;7.614;2023-08-08T05:26:52;13.70;19.30
23671;DHT22;12012;51.998;7.614;2023-08-08T05:29:19;13.80;21.40
23671;DHT22;12012;51.998;7.614;2023-08-08T05:31:45;13.80;25.20
23671;DHT22;12012;51.998;7.614;2023-08-08T05:34:11;13.80;19.70
23671;DHT22;12012;51.998;7.614;2023-08-08T05:36:36;13.90;16.40
23671;DHT22;12012;51.998;7.614;2023-08-08T05:39:03;13.90;14.80
23671;DHT22;12012;51.998;7.614;2023-08-08T05:41:29;13.90;5.50
23671;DHT22;12012;51.998;7.614;2023-08-08T05:43:54;13.90;6.00
23671;DHT22;12012;51.998;7.614;2023-08-08T05:46:20;14.00;1.00
23671;DHT22;12012;51.998;7.614;2023-08-08T05:48:45;14.00;1.00
23671;DHT22;12012;51.998;7.614;2023-08-08T05:51:12;14.10;1.00
23671;DHT22;12012;51.998;7.614;2023-08-08T05:53:37;14.10;1.20
23671;DHT22;12012;51.998;7.614;2023-08-08T05:56:04;14.20;1.00
23671;DHT22;12012;51.998;7.614;2023-08-08T05:58:30;14.30;1.00
23671;DHT22;12012;51.998;7.614;2023-08-08T06:00:55;14.40;1.00
23671;DHT22;12012;51.998;7.614;2023-08-08T06:03:21;14.40;1.00
23671;DHT22;12012;51.998;7.614;2023-08-08T06:05:46;14.50;1.00
23671;DHT22;12012;51.998;7.614;2023-08-08T06:08:12;14.60;1.00
23671;DHT22;12012;51.998;7.614;2023-08-08T06:10:39;14.60;1.00
23671;DHT22;12012;51.998;7.614;2023-08-08T06:13:04;14.70;1.00
23671;DHT22;12012;51.998;7.614;2023-08-08T06:15:30;14.70;1.00
23671;DHT22;12012;51.998;7.614;2023-08-08T06:17:56;14.80;1.00
23671;DHT22;12012;51.998;7.614;2023-08-08T06:20:21;14.90;1.00
23671;DHT22;12012;51.998;7.614;2023-08-08T06:22:48;14.90;1.00
23671;DHT22;12012;51.998;7.614;2023-08-08T06:25:14;14.90;1.00
23671;DHT22;12012;51.998;7.614;2023-08-08T06:27:39;15.00;1.00
23671;DHT22;12012;51.998;7.614;2023-08-08T06:30:06;15.00;1.00
23671;DHT22;12012;51.998;7.614;2023-08-08T06:32:32;15.10;1.00
23671;DHT22;12012;51.998;7.614;2023-08-08T06:34:58;15.10;1.00
23671;DHT22;12012;51.998;7.614;2023-08-08T06:37:23;15.20;1.00
23671;DHT22;12012;51.998;7.614;2023-08-08T06:39:49;15.20;1.00
23671;DHT22;12012;51.998;7.614;2023-08-08T06:42:14;15.20;1.00
23671;DHT22;12012;51.998;7.614;2023-08-08T06:44:44;15.30;1.00
23671;DHT22;12012;51.998;7.614;2023-08-08T06:47:10;15.40;1.00
23671;DHT22;12012;51.998;7.614;2023-08-08T06:49:36;15.40;1.00
23671;DHT22;12012;51.998;7.614;2023-08-08T06:52:02;15.50;99.90
23671;DHT22;12012;51.998;7.614;2023-08-08T06:54:28;15.50;99.90
23671;DHT22;12012;51.998;7.614;2023-08-08T06:56:53;15.60;99.90
23671;DHT22;12012;51.998;7.614;2023-08-08T06:59:21;15.60;99.90
23671;DHT22;12012;51.998;7.614;2023-08-08T07:01:48;15.60;99.90
23671;DHT22;12012;51.998;7.614;2023-08-08T07:04:14;15.60;99.90
23671;DHT22;12012;51.998;7.614;2023-08-08T07:06:39;15.60;99.90
23671;DHT22;12012;51.998;7.614;2023-08-08T07:09:05;15.60;99.90
23671;DHT22;12012;51.998;7.614;2023-08-08T07:11:31;15.60;99.90
23671;DHT22;12012;51.998;7.614;2023-08-08T07:13:57;15.70;40.20
23671;DHT22;12012;51.998;7.614;2023-08-08T07:16:22;15.80;1.00
23671;DHT22;12012;51.998;7.614;2023-08-08T07:18:48;15.80;1.00
23671;DHT22;12012;51.998;7.614;2023-08-08T07:21:13;15.90;1.00
23671;DHT22;12012;51.998;7.614;2023-08-08T07:23:40;15.90;1.00
23671;DHT22;12012;51.998;7.614;2023-08-08T07:26:05;16.00;99.90
23671;DHT22;12012;51.998;7.614;2023-08-08T07:28:31;16.10;99.90
23671;DHT22;12012;51.998;7.614;2023-08-08T07:30:58;16.10;99.90
23671;DHT22;12012;51.998;7.614;2023-08-08T07:33:23;16.20;99.90
23671;DHT22;12012;51.998;7.614;2023-08-08T07:35:49;16.30;1.00
23671;DHT22;12012;51.998;7.614;2023-08-08T07:38:14;16.50;99.90
23671;DHT22;12012;51.998;7.614;2023-08-08T07:40:41;16.70;12.00
23671;DHT22;12012;51.998;7.614;2023-08-08T07:43:07;16.80;99.90
23671;DHT22;12012;51.998;7.614;2023-08-08T07:45:32;16.90;99.90
23671;DHT22;12012;51.998;7.614;2023-08-08T07:47:58;16.80;1.00
23671;DHT22;12012;51.998;7.614;2023-08-08T07:50:23;16.70;99.90
23671;DHT22;12012;51.998;7.614;2023-08-08T07:52:49;16.50;1.00
23671;DHT22;12012;51.998;7.614;2023-08-08T07:55:15;16.40;99.90
23671;DHT22;12012;51.998;7.614;2023-08-08T07:57:40;16.50;1.00
23671;DHT22;12012;51.998;7.614;2023-08-08T08:00:06;16.70;1.00
23671;DHT22;12012;51.998;7.614;2023-08-08T08:02:42;16.80;54.90
23671;DHT22;12012;51.998;7.614;2023-08-08T08:05:08;16.90;99.90
23671;DHT22;12012;51.998;7.614;2023-08-08T08:07:35;17.00;99.90
23671;DHT22;12012;51.998;7.614;2023-08-08T08:10:02;17.20;99.90
23671;DHT22;12012;51.998;7.614;2023-08-08T08:12:29;17.70;99.90
23671;DHT22;12012;51.998;7.614;2023-08-08T08:14:55;18.20;99.90
23671;DHT22;12012;51.998;7.614;2023-08-08T08:17:20;18.60;99.90
23671;DHT22;12012;51.998;7.614;2023-08-08T08:19:46;18.80;99.90
23671;DHT22;12012;51.998;7.614;2023-08-08T08:22:12;18.80;1.00
23671;DHT22;12012;51.998;7.614;2023-08-08T08:24:37;19.00;99.90
23671;DHT22;12012;51.998;7.614;2023-08-08T08:27:03;19.20;99.90
23671;DHT22;12012;51.998;7.614;2023-08-08T08:29:28;19.10;58.00
23671;DHT22;12012;51.998;7.614;2023-08-08T08:31:55;19.20;1.00
23671;DHT22;12012;51.998;7.614;2023-08-08T08:34:20;19.20;1.00
23671;DHT22;12012;51.998;7.614;2023-08-08T08:36:46;19.40;1.00
23671;DHT22;12012;51.998;7.614;2023-08-08T08:39:11;19.50;99.90
23671;DHT22;12012;51.998;7.614;2023-08-08T08:41:37;19.50;99.90
23671;DHT22;12012;51.998;7.614;2023-08-08T08:44:04;19.40;99.90
23671;DHT22;12012;51.998;7.614;2023-08-08T08:46:31;19.50;99.90
23671;DHT22;12012;51.998;7.614;2023-08-08T08:48:58;19.60;99.90
23671;DHT22;12012;51.998;7.614;2023-08-08T08:51:25;19.90;99.90
23671;DHT22;12012;51.998;7.614;2023-08-08T08:53:51;20.30;99.90
23671;DHT22;12012;51.998;7.614;2023-08-08T08:56:17;20.70;99.90
23671;DHT22;12012;51.998;7.614;2023-08-08T08:58:43;21.10;99.90
23671;DHT22;12012;51.998;7.614;2023-08-08T09:01:09;20.90;99.90
23671;DHT22;12012;51.998;7.614;2023-08-08T09:03:36;20.50;99.90
23671;DHT22;12012;51.998;7.614;2023-08-08T09:06:02;20.20;99.90
23671;DHT22;12012;51.998;7.614;2023-08-08T09:08:29;19.80;99.90
23671;DHT22;12012;51.998;7.614;2023-08-08T09:10:55;19.50;99.90
23671;DHT22;12012;51.998;7.614;2023-08-08T09:13:22;19.30;99.90
23671;DHT22;12012;51.998;7.614;2023-08-08T09:15:48;19.20;99.90
23671;DHT22;12012;51.998;7.614;2023-08-08T09:18:17;19.40;99.90
23671;DHT22;12012;51.998;7.614;2023-08-08T09:20:47;19.70;99.90
23671;DHT22;12012;51.998;7.614;2023-08-08T09:23:13;19.70;99.90
23671;DHT22;12012;51.998;7.614;2023-08-08T09:25:39;19.80;99.90
23671;DHT22;12012;51.998;7.614;2023-08-08T09:28:05;20.00;97.90
23671;DHT22;12012;51.998;7.614;2023-08-08T09:30:30;20.20;93.90
23671;DHT22;12012;51.998;7.614;2023-08-08T09:33:00;20.70;79.30
23671;DHT22;12012;51.998;7.614;2023-08-08T09:35:28;21.10;58.00
23671;DHT22;12012;51.998;7.614;2023-08-08T09:37:54;21.60;38.40
23671;DHT22;12012;51.998;7.614;2023-08-08T09:40:20;22.00;23.30
23671;DHT22;12012;51.998;7.614;2023-08-08T09:42:46;22.40;14.00
23671;DHT22;12012;51.998;7.614;2023-08-08T09:45:12;22.70;5.70
23671;DHT22;12012;51.998;7.614;2023-08-08T09:47:38;23.10;1.00
23671;DHT22;12012;51.998;7.614;2023-08-08T09:50:04;23.30;1.00
23671;DHT22;12012;51.998;7.614;2023-08-08T09:52:30;23.50;1.00
23671;DHT22;12012;51.998;7.614;2023-08-08T09:54:56;23.80;1.00
23671;DHT22;12012;51.998;7.614;2023-08-08T09:57:25;23.70;1.00
23671;DHT22;12012;51.998;7.614;2023-08-08T09:59:52;23.70;1.00
23671;DHT22;12012;51.998;7.614;2023-08-08T10:02:18;23.70;1.00
23671;DHT22;12012;51.998;7.614;2023-08-08T10:04:47;23.60;1.00
23671;DHT22;12012;51.998;7.614;2023-08-08T10:07:13;23.40;1.00
23671;DHT22;12012;51.998;7.614;2023-08-08T10:09:39;23.30;1.00
23671;DHT22;12012;51.998;7.614;2023-08-08T10:12:06;23.30;1.00
23671;DHT22;12012;51.998;7.614;2023-08-08T10:14:35;23.10;1.00
23671;DHT22;12012;51.998;7.614;2023-08-08T10:17:03;22.70;1.00
23671;DHT22;12012;51.998;7.614;2023-08-08T10:19:29;22.20;1.00
23671;DHT22;12012;51.998;7.614;2023-08-08T10:22:04;21.90;1.00
23671;DHT22;12012;51.998;7.614;2023-08-08T10:24:38;21.60;1.00
23671;DHT22;12012;51.998;7.614;2023-08-08T10:27:04;21.50;1.00
23671;DHT22;12012;51.998;7.614;2023-08-08T10:29:32;21.40;1.00
23671;DHT22;12012;51.998;7.614;2023-08-08T10:32:00;21.30;1.00
23671;DHT22;12012;51.998;7.614;2023-08-08T10:34:46;21.10;1.00
23671;DHT22;12012;51.998;7.614;2023-08-08T10:37:16;21.00;1.00
23671;DHT22;12012;51.998;7.614;2023-08-08T10:39:53;21.10;1.00
23671;DHT22;12012;51.998;7.614;2023-08-08T10:42:20;21.40;1.00
23671;DHT22;12012;51.998;7.614;2023-08-08T10:44:58;21.50;1.00
23671;DHT22;12012;51.998;7.614;2023-08-08T10:47:25;21.60;1.00
23671;DHT22;12012;51.998;7.614;2023-08-08T10:52:24;21.90;1.00
23671;DHT22;12012;51.998;7.614;2023-08-08T10:54:53;22.30;1.00
23671;DHT22;12012;51.998;7.614;2023-08-08T10:57:23;22.40;1.00
23671;DHT22;12012;51.998;7.614;2023-08-08T10:59:49;22.90;1.00
23671;DHT22;12012;51.998;7.614;2023-08-08T11:02:15;23.70;1.00
23671;DHT22;12012;51.998;7.614;2023-08-08T11:04:40;23.80;1.00
23671;DHT22;12012;51.998;7.614;2023-08-08T11:07:06;23.50;1.00
23671;DHT22;12012;51.998;7.614;2023-08-08T11:09:32;23.10;1.00
23671;DHT22;12012;51.998;7.614;2023-08-08T11:11:58;23.50;1.00
23671;DHT22;12012;51.998;7.614;2023-08-08T11:14:23;24.20;1.00
23671;DHT22;12012;51.998;7.614;2023-08-08T11:16:51;24.90;1.00
23671;DHT22;12012;51.998;7.614;2023-08-08T11:19:17;24.90;1.00
23671;DHT22;12012;51.998;7.614;2023-08-08T11:21:45;24.90;1.00
23671;DHT22;12012;51.998;7.614;2023-08-08T11:24:12;25.50;1.00
23671;DHT22;12012;51.998;7.614;2023-08-08T11:26:39;26.10;1.00
23671;DHT22;12012;51.998;7.614;2023-08-08T11:29:05;26.10;1.00
23671;DHT22;12012;51.998;7.614;2023-08-08T11:31:33;25.80;1.00
23671;DHT22;12012;51.998;7.614;2023-08-08T11:33:59;26.20;1.00
23671;DHT22;12012;51.998;7.614;2023-08-08T11:36:29;26.60;1.00
23671;DHT22;12012;51.998;7.614;2023-08-08T11:38:55;26.40;1.00
23671;DHT22;12012;51.998;7.614;2023-08-08T11:41:23;26.20;1.00
23671;DHT22;12012;51.998;7.614;2023-08-08T11:43:50;26.40;1.00
23671;DHT22;12012;51.998;7.614;2023-08-08T11:46:17;26.70;1.00
23671;DHT22;12012;51.998;7.614;2023-08-08T11:48:46;26.30;1.00
23671;DHT22;12012;51.998;7.614;2023-08-08T11:51:14;25.90;1.00
23671;DHT22;12012;51.998;7.614;2023-08-08T11:53:51;25.40;1.00
23671;DHT22;12012;51.998;7.614;2023-08-08T11:56:18;25.00;1.00
23671;DHT22;12012;51.998;7.614;2023-08-08T11:58:44;25.00;1.00
23671;DHT22;12012;51.998;7.614;2023-08-08T12:01:09;24.90;1.00
23671;DHT22;12012;51.998;7.614;2023-08-08T12:03:36;24.90;1.00
23671;DHT22;12012;51.998;7.614;2023-08-08T12:06:12;25.00;1.00
23671;DHT22;12012;51.998;7.614;2023-08-08T12:08:38;24.70;1.00
23671;DHT22;12012;51.998;7.614;2023-08-08T12:11:03;24.60;1.00
23671;DHT22;12012;51.998;7.614;2023-08-08T12:13:31;24.80;1.00
23671;DHT22;12012;51.998;7.614;2023-08-08T12:15:58;24.70;1.00
23671;DHT22;12012;51.998;7.614;2023-08-08T12:18:24;24.30;1.00
23671;DHT22;12012;51.998;7.614;2023-08-08T12:20:50;24.00;1.00
23671;DHT22;12012;51.998;7.614;2023-08-08T12:23:15;23.50;1.00
23671;DHT22;12012;51.998;7.614;2023-08-08T12:25:42;23.10;1.00
23671;DHT22;12012;51.998;7.614;2023-08-08T12:28:08;22.70;1.00
23671;DHT22;12012;51.998;7.614;2023-08-08T12:30:33;22.50;1.00
23671;DHT22;12012;51.998;7.614;2023-08-08T12:32:59;22.30;1.00
23671;DHT22;12012;51.998;7.614;2023-08-08T12:35:24;22.10;1.00
23671;DHT22;12012;51.998;7.614;2023-08-08T12:37:52;21.80;1.00
23671;DHT22;12012;51.998;7.614;2023-08-08T12:40:17;21.70;1.00
23671;DHT22;12012;51.998;7.614;2023-08-08T12:42:43;21.70;1.00
23671;DHT22;12012;51.998;7.614;2023-08-08T12:45:09;21.90;1.00
23671;DHT22;12012;51.998;7.614;2023-08-08T12:47:36;22.30;1.00
23671;DHT22;12012;51.998;7.614;2023-08-08T12:50:04;23.40;1.00
23671;DHT22;12012;51.998;7.614;2023-08-08T12:52:29;24.20;1.00
23671;DHT22;12012;51.998;7.614;2023-08-08T12:54:55;24.30;1.00
23671;DHT22;12012;51.998;7.614;2023-08-08T12:57:20;24.60;1.00
23671;DHT22;12012;51.998;7.614;2023-08-08T12:59:46;24.60;1.00
23671;DHT22;12012;51.998;7.614;2023-08-08T13:02:11;24.30;1.00
23671;DHT22;12012;51.998;7.614;2023-08-08T13:04:37;24.00;1.00
23671;DHT22;12012;51.998;7.614;2023-08-08T13:07:03;24.40;1.00
23671;DHT22;12012;51.998;7.614;2023-08-08T13:09:29;24.70;1.00
23671;DHT22;12012;51.998;7.614;2023-08-08T13:11:55;24.50;1.00
23671;DHT22;12012;51.998;7.614;2023-08-08T13:14:21;24.70;1.00
23671;DHT22;12012;51.998;7.614;2023-08-08T13:16:46;24.90;1.00
23671;DHT22;12012;51.998;7.614;2023-08-08T13:19:12;25.10;1.00
23671;DHT22;12012;51.998;7.614;2023-08-08T13:21:38;25.30;1.00
23671;DHT22;12012;51.998;7.614;2023-08-08T13:24:05;25.30;1.00
23671;DHT22;12012;51.998;7.614;2023-08-08T13:26:30;25.30;1.00
23671;DHT22;12012;51.998;7.614;2023-08-08T13:28:56;25.30;1.00
23671;DHT22;12012;51.998;7.614;2023-08-08T13:31:22;25.60;1.00
23671;DHT22;12012;51.998;7.614;2023-08-08T13:33:47;25.80;1.00
23671;DHT22;12012;51.998;7.614;2023-08-08T13:36:13;26.20;1.00
23671;DHT22;12012;51.998;7.614;2023-08-08T13:38:38;26.30;1.00
23671;DHT22;12012;51.998;7.614;2023-08-08T13:41:04;26.20;1.00
23671;DHT22;12012;51.998;7.614;2023-08-08T13:43:29;26.10;1.00
23671;DHT22;12012;51.998;7.614;2023-08-08T13:45:55;26.50;1.00
23671;DHT22;12012;51.998;7.614;2023-08-08T13:48:21;26.20;1.00
23671;DHT22;12012;51.998;7.614;2023-08-08T13:50:47;25.70;1.00
23671;DHT22;12012;51.998;7.614;2023-08-08T13:53:12;25.80;1.00
23671;DHT22;12012;51.998;7.614;2023-08-08T13:55:38;26.50;1.00
23671;DHT22;12012;51.998;7.614;2023-08-08T13:58:08;26.40;1.00
23671;DHT22;12012;51.998;7.614;2023-08-08T14:00:33;26.20;1.00
23671;DHT22;12012;51.998;7.614;2023-08-08T14:03:00;26.20;1.00
23671;DHT22;12012;51.998;7.614;2023-08-08T14:05:26;26.30;1.00
23671;DHT22;12012;51.998;7.614;2023-08-08T14:07:53;26.20;1.00
23671;DHT22;12012;51.998;7.614;2023-08-08T14:10:19;26.40;1.00
23671;DHT22;12012;51.998;7.614;2023-08-08T14:12:45;26.80;1.00
23671;DHT22;12012;51.998;7.614;2023-08-08T14:15:11;26.80;1.00
23671;DHT22;12012;51.998;7.614;2023-08-08T14:17:36;26.60;1.00
23671;DHT22;12012;51.998;7.614;2023-08-08T14:20:02;26.60;1.00
23671;DHT22;12012;51.998;7.614;2023-08-08T14:22:28;27.00;1.00
23671;DHT22;12012;51.998;7.614;2023-08-08T14:24:54;27.30;1.00
23671;DHT22;12012;51.998;7.614;2023-08-08T14:27:19;27.60;1.00
23671;DHT22;12012;51.998;7.614;2023-08-08T14:29:45;27.60;1.00
23671;DHT22;12012;51.998;7.614;2023-08-08T14:32:10;27.40;1.00
23671;DHT22;12012;51.998;7.614;2023-08-08T14:34:36;27.30;1.00
23671;DHT22;12012;51.998;7.614;2023-08-08T14:37:03;27.00;1.00
23671;DHT22;12012;51.998;7.614;2023-08-08T14:39:29;26.70;1.00
23671;DHT22;12012;51.998;7.614;2023-08-08T14:41:55;26.70;1.00
23671;DHT22;12012;51.998;7.614;2023-08-08T14:44:21;26.60;1.00
23671;DHT22;12012;51.998;7.614;2023-08-08T14:46:47;26.70;1.00
23671;DHT22;12012;51.998;7.614;2023-08-08T14:49:13;26.20;1.00
23671;DHT22;12012;51.998;7.614;2023-08-08T14:51:39;25.70;1.00
23671;DHT22;12012;51.998;7.614;2023-08-08T14:54:04;25.40;1.00
23671;DHT22;12012;51.998;7.614;2023-08-08T14:56:30;25.30;1.00
23671;DHT22;12012;51.998;7.614;2023-08-08T14:58:55;25.10;1.00
23671;DHT22;12012;51.998;7.614;2023-08-08T15:01:22;25.20;1.00
23671;DHT22;12012;51.998;7.614;2023-08-08T15:03:47;25.40;1.00
23671;DHT22;12012;51.998;7.614;2023-08-08T15:06:13;25.30;1.00
23671;DHT22;12012;51.998;7.614;2023-08-08T15:08:38;25.30;1.00
23671;DHT22;12012;51.998;7.614;2023-08-08T15:11:04;25.30;1.00
23671;DHT22;12012;51.998;7.614;2023-08-08T15:13:29;25.40;1.00
23671;DHT22;12012;51.998;7.614;2023-08-08T15:15:55;25.40;1.00
23671;DHT22;12012;51.998;7.614;2023-08-08T15:18:20;25.20;1.00
23671;DHT22;12012;51.998;7.614;2023-08-08T15:20:46;24.80;1.00
23671;DHT22;12012;51.998;7.614;2023-08-08T15:23:12;24.30;1.00
23671;DHT22;12012;51.998;7.614;2023-08-08T15:25:40;24.00;1.00
23671;DHT22;12012;51.998;7.614;2023-08-08T15:28:07;24.00;1.00
23671;DHT22;12012;51.998;7.614;2023-08-08T15:30:33;24.30;1.00
23671;DHT22;12012;51.998;7.614;2023-08-08T15:32:58;24.60;1.00
23671;DHT22;12012;51.998;7.614;2023-08-08T15:35:24;24.40;1.00
23671;DHT22;12012;51.998;7.614;2023-08-08T15:37:50;24.30;1.00
23671;DHT22;12012;51.998;7.614;2023-08-08T15:40:16;24.20;1.00